SPJ weather

San Jose Produce Airport
Reforma, Chiapas, Mexico

Public forecast

Using degrees Celsius for public forecast. Weather courtesy of forecast.io.

Closest aviation weather report (METAR) to San Jose Produce Airport

Closest report is Carlos Rovirosa Pérez International Airport, 24.9 nm (46.1 km) E. Retrieved 2020/02/22 17:45 UTC (2 hours ago):

MMVA 221745Z 35006KT 3SM -DZ OVC010 23/23 A3022 RMK SLP234 57004 903 8/7// VRBL CONDS

Closest aviation forecast (TAF) to San Jose Produce Airport

Closest forecast is Carlos Rovirosa Pérez International Airport, 24.9 nm (46.1 km) E. Retrieved 2020/02/22 18:38 UTC (50 minutes ago):

TAF MMVA 221632Z 2218/2318 06014KT 3SM -DZ BR BKN008 TEMPO 2218/2222 1 1/2SM -DZ BR OVC005 FM230000 02012KT 3SM BR BKN010 FM230400 02005KT 4SM HZ BKN010 TEMPO 2311/2315 3SM BR HZ BKN008 FM231700 08012KT 6SM HZ SCT010 BKN030 OVC070